sensor_id;sensor_type;location;lat;lon;timestamp;pressure;altitude;pressure_sealevel;temperature;humidity
59272;BME280;45043;51.068;7.026;2024-03-23T00:52:00;99770.66;;;9.14;65.73
59272;BME280;45043;51.068;7.026;2024-03-23T00:55:02;99784.19;;;8.81;66.26
59272;BME280;45043;51.068;7.026;2024-03-23T00:58:03;99792.06;;;8.58;67.11
59272;BME280;45043;51.068;7.026;2024-03-23T01:01:03;99779.16;;;8.49;67.55
59272;BME280;45043;51.068;7.026;2024-03-23T01:04:05;99782.59;;;8.49;67.48
59272;BME280;45043;51.068;7.026;2024-03-23T01:07:05;99779.78;;;8.74;67.30
59272;BME280;45043;51.068;7.026;2024-03-23T01:10:07;99759.31;;;8.61;67.34
59272;BME280;45043;51.068;7.026;2024-03-23T01:13:07;99767.50;;;8.43;67.86
59272;BME280;45043;51.068;7.026;2024-03-23T01:16:08;99763.88;;;8.21;68.47
59272;BME280;45043;51.068;7.026;2024-03-23T01:19:09;99748.16;;;8.13;68.72
59272;BME280;45043;51.068;7.026;2024-03-23T01:22:10;99755.47;;;8.49;67.34
59272;BME280;45043;51.068;7.026;2024-03-23T01:25:12;99755.19;;;8.58;67.07
59272;BME280;45043;51.068;7.026;2024-03-23T01:28:13;99749.34;;;8.71;66.90
59272;BME280;45043;51.068;7.026;2024-03-23T01:31:13;99742.19;;;8.80;66.34
59272;BME280;45043;51.068;7.026;2024-03-23T01:34:15;99755.22;;;9.11;65.09
59272;BME280;45043;51.068;7.026;2024-03-23T01:37:16;99755.94;;;8.90;65.28
59272;BME280;45043;51.068;7.026;2024-03-23T01:40:17;99752.28;;;8.53;66.04
59272;BME280;45043;51.068;7.026;2024-03-23T01:43:17;99765.50;;;8.68;65.64
59272;BME280;45043;51.068;7.026;2024-03-23T01:46:18;99760.50;;;8.73;65.35
59272;BME280;45043;51.068;7.026;2024-03-23T01:49:18;99750.84;;;8.88;65.15
59272;BME280;45043;51.068;7.026;2024-03-23T01:52:19;99751.22;;;9.15;64.38
59272;BME280;45043;51.068;7.026;2024-03-23T01:55:20;99742.41;;;9.23;63.88
59272;BME280;45043;51.068;7.026;2024-03-23T01:58:20;99737.16;;;9.08;64.26
59272;BME280;45043;51.068;7.026;2024-03-23T02:01:21;99753.06;;;9.14;63.97
59272;BME280;45043;51.068;7.026;2024-03-23T02:04:22;99750.78;;;8.97;63.91
59272;BME280;45043;51.068;7.026;2024-03-23T02:07:22;99751.50;;;9.05;63.24
59272;BME280;45043;51.068;7.026;2024-03-23T02:10:24;99751.13;;;9.08;63.55
59272;BME280;45043;51.068;7.026;2024-03-23T02:13:25;99742.31;;;9.16;63.21
59272;BME280;45043;51.068;7.026;2024-03-23T02:16:25;99730.78;;;9.17;63.04
59272;BME280;45043;51.068;7.026;2024-03-23T02:19:26;99760.03;;;8.69;64.07
59272;BME280;45043;51.068;7.026;2024-03-23T02:22:37;99748.09;;;8.21;65.40
59272;BME280;45043;51.068;7.026;2024-03-23T02:25:38;99746.59;;;8.04;65.96
59272;BME280;45043;51.068;7.026;2024-03-23T02:28:39;99742.31;;;8.03;65.88
59272;BME280;45043;51.068;7.026;2024-03-23T02:31:40;99749.16;;;8.35;64.37
59272;BME280;45043;51.068;7.026;2024-03-23T02:34:41;99746.44;;;8.66;63.41
59272;BME280;45043;51.068;7.026;2024-03-23T02:37:41;99754.84;;;9.14;62.46
59272;BME280;45043;51.068;7.026;2024-03-23T02:40:43;99747.66;;;9.37;61.61
59272;BME280;45043;51.068;7.026;2024-03-23T02:43:43;99752.75;;;9.09;61.41
59272;BME280;45043;51.068;7.026;2024-03-23T02:46:44;99757.56;;;9.35;60.72
59272;BME280;45043;51.068;7.026;2024-03-23T02:49:45;99761.19;;;9.64;59.66
59272;BME280;45043;51.068;7.026;2024-03-23T02:52:45;99766.28;;;9.21;59.65
59272;BME280;45043;51.068;7.026;2024-03-23T02:55:47;99765.66;;;9.04;59.85
59272;BME280;45043;51.068;7.026;2024-03-23T02:58:47;99760.88;;;8.70;60.28
59272;BME280;45043;51.068;7.026;2024-03-23T03:01:48;99772.84;;;8.73;60.26
59272;BME280;45043;51.068;7.026;2024-03-23T03:04:48;99774.50;;;8.51;60.84
59272;BME280;45043;51.068;7.026;2024-03-23T03:07:49;99768.47;;;8.27;60.98
59272;BME280;45043;51.068;7.026;2024-03-23T03:10:49;99764.59;;;7.92;61.99
59272;BME280;45043;51.068;7.026;2024-03-23T03:13:50;99770.41;;;7.79;62.20
59272;BME280;45043;51.068;7.026;2024-03-23T03:16:51;99766.84;;;7.95;61.91
59272;BME280;45043;51.068;7.026;2024-03-23T03:19:51;99747.69;;;7.86;62.19
59272;BME280;45043;51.068;7.026;2024-03-23T03:22:56;99749.38;;;7.79;62.48
59272;BME280;45043;51.068;7.026;2024-03-23T03:25:58;99740.88;;;7.69;62.82
59272;BME280;45043;51.068;7.026;2024-03-23T03:28:59;99731.88;;;7.63;62.98
59272;BME280;45043;51.068;7.026;2024-03-23T03:31:59;99743.00;;;7.74;62.79
59272;BME280;45043;51.068;7.026;2024-03-23T03:35:00;99756.56;;;7.85;62.63
59272;BME280;45043;51.068;7.026;2024-03-23T03:38:01;99743.22;;;7.64;63.04
59272;BME280;45043;51.068;7.026;2024-03-23T03:41:01;99750.28;;;7.63;62.96
59272;BME280;45043;51.068;7.026;2024-03-23T03:44:02;99745.28;;;7.45;63.15
59272;BME280;45043;51.068;7.026;2024-03-23T03:47:03;99759.06;;;7.48;63.23
59272;BME280;45043;51.068;7.026;2024-03-23T03:50:05;99754.63;;;7.48;63.30
59272;BME280;45043;51.068;7.026;2024-03-23T03:53:06;99763.34;;;7.49;63.39
59272;BME280;45043;51.068;7.026;2024-03-23T03:56:07;99751.00;;;7.49;63.65
59272;BME280;45043;51.068;7.026;2024-03-23T03:59:07;99756.06;;;7.51;63.51
59272;BME280;45043;51.068;7.026;2024-03-23T04:02:10;99765.78;;;7.50;63.37
59272;BME280;45043;51.068;7.026;2024-03-23T04:05:11;99762.66;;;7.46;63.17
59272;BME280;45043;51.068;7.026;2024-03-23T04:08:12;99758.13;;;7.40;63.72
59272;BME280;45043;51.068;7.026;2024-03-23T04:11:12;99766.00;;;7.40;63.46
59272;BME280;45043;51.068;7.026;2024-03-23T04:14:13;99766.97;;;7.39;63.89
59272;BME280;45043;51.068;7.026;2024-03-23T04:17:14;99763.69;;;7.37;63.87
59272;BME280;45043;51.068;7.026;2024-03-23T04:20:14;99764.69;;;7.36;63.75
59272;BME280;45043;51.068;7.026;2024-03-23T04:23:17;99759.44;;;7.36;63.80
59272;BME280;45043;51.068;7.026;2024-03-23T04:26:18;99762.72;;;7.38;64.12
59272;BME280;45043;51.068;7.026;2024-03-23T04:29:19;99763.38;;;7.40;63.79
59272;BME280;45043;51.068;7.026;2024-03-23T04:32:19;99763.00;;;7.43;63.80
59272;BME280;45043;51.068;7.026;2024-03-23T04:35:20;99760.75;;;7.40;63.85
59272;BME280;45043;51.068;7.026;2024-03-23T04:38:23;99769.59;;;7.39;63.91
59272;BME280;45043;51.068;7.026;2024-03-23T04:41:23;99763.53;;;7.39;63.96
59272;BME280;45043;51.068;7.026;2024-03-23T04:44:24;99771.25;;;7.40;63.82
59272;BME280;45043;51.068;7.026;2024-03-23T04:47:25;99766.97;;;7.39;63.63
59272;BME280;45043;51.068;7.026;2024-03-23T04:50:27;99760.25;;;7.37;64.00
59272;BME280;45043;51.068;7.026;2024-03-23T04:53:27;99763.00;;;7.43;63.69
59272;BME280;45043;51.068;7.026;2024-03-23T04:56:29;99773.72;;;7.34;64.31
59272;BME280;45043;51.068;7.026;2024-03-23T04:59:31;99777.84;;;7.28;64.47
59272;BME280;45043;51.068;7.026;2024-03-23T05:02:32;99778.22;;;7.25;64.27
59272;BME280;45043;51.068;7.026;2024-03-23T05:05:35;99768.66;;;7.24;64.44
59272;BME280;45043;51.068;7.026;2024-03-23T05:08:35;99768.53;;;7.09;64.58
59272;BME280;45043;51.068;7.026;2024-03-23T05:11:39;99759.56;;;6.95;64.41
59272;BME280;45043;51.068;7.026;2024-03-23T05:14:40;99767.09;;;6.90;64.57
59272;BME280;45043;51.068;7.026;2024-03-23T05:17:41;99767.91;;;6.91;65.33
59272;BME280;45043;51.068;7.026;2024-03-23T05:20:41;99765.09;;;6.84;64.78
59272;BME280;45043;51.068;7.026;2024-03-23T05:23:42;99772.03;;;6.85;64.78
59272;BME280;45043;51.068;7.026;2024-03-23T05:26:43;99779.56;;;6.80;65.32
59272;BME280;45043;51.068;7.026;2024-03-23T05:29:44;99782.19;;;6.72;65.45
59272;BME280;45043;51.068;7.026;2024-03-23T05:32:44;99787.28;;;6.65;65.29
59272;BME280;45043;51.068;7.026;2024-03-23T05:35:45;99793.19;;;6.59;65.91
59272;BME280;45043;51.068;7.026;2024-03-23T05:38:45;99783.66;;;6.58;65.82
59272;BME280;45043;51.068;7.026;2024-03-23T05:41:47;99785.16;;;6.61;65.92
59272;BME280;45043;51.068;7.026;2024-03-23T05:44:47;99781.22;;;6.57;66.48
59272;BME280;45043;51.068;7.026;2024-03-23T05:47:48;99780.59;;;6.55;66.62
59272;BME280;45043;51.068;7.026;2024-03-23T05:50:49;99777.28;;;6.69;66.75
59272;BME280;45043;51.068;7.026;2024-03-23T05:53:50;99778.59;;;6.97;67.19
59272;BME280;45043;51.068;7.026;2024-03-23T05:56:54;99792.34;;;7.08;66.74
59272;BME280;45043;51.068;7.026;2024-03-23T05:59:55;99796.94;;;7.22;66.65
59272;BME280;45043;51.068;7.026;2024-03-23T06:02:56;99789.03;;;7.22;66.64
59272;BME280;45043;51.068;7.026;2024-03-23T06:05:56;99788.34;;;7.28;66.83
59272;BME280;45043;51.068;7.026;2024-03-23T06:08:57;99801.47;;;7.36;66.47
59272;BME280;45043;51.068;7.026;2024-03-23T06:11:58;99807.03;;;7.41;66.23
59272;BME280;45043;51.068;7.026;2024-03-23T06:14:59;99806.34;;;7.56;65.91
59272;BME280;45043;51.068;7.026;2024-03-23T06:18:01;99815.66;;;7.66;65.58
59272;BME280;45043;51.068;7.026;2024-03-23T06:21:04;99815.56;;;7.83;65.78
59272;BME280;45043;51.068;7.026;2024-03-23T06:24:05;99809.63;;;8.20;65.54
59272;BME280;45043;51.068;7.026;2024-03-23T06:27:06;99797.22;;;8.52;65.29
59272;BME280;45043;51.068;7.026;2024-03-23T06:30:07;99802.63;;;8.73;64.81
59272;BME280;45043;51.068;7.026;2024-03-23T06:33:07;99798.16;;;8.82;64.63
59272;BME280;45043;51.068;7.026;2024-03-23T06:36:11;99798.78;;;8.84;64.59
59272;BME280;45043;51.068;7.026;2024-03-23T06:39:12;99804.81;;;8.93;64.42
59272;BME280;45043;51.068;7.026;2024-03-23T06:42:15;99808.38;;;9.00;64.14
59272;BME280;45043;51.068;7.026;2024-03-23T06:45:16;99804.63;;;9.09;63.96
59272;BME280;45043;51.068;7.026;2024-03-23T06:48:17;99800.47;;;9.14;63.41
59272;BME280;45043;51.068;7.026;2024-03-23T06:51:18;99812.00;;;9.28;63.19
59272;BME280;45043;51.068;7.026;2024-03-23T06:54:20;99806.28;;;9.39;62.21
59272;BME280;45043;51.068;7.026;2024-03-23T06:57:21;99819.19;;;9.34;62.05
59272;BME280;45043;51.068;7.026;2024-03-23T07:00:22;99809.13;;;9.38;61.95
59272;BME280;45043;51.068;7.026;2024-03-23T07:03:23;99813.72;;;9.51;61.66
59272;BME280;45043;51.068;7.026;2024-03-23T07:06:24;99811.94;;;9.66;61.04
59272;BME280;45043;51.068;7.026;2024-03-23T07:09:27;99825.47;;;9.78;60.69
59272;BME280;45043;51.068;7.026;2024-03-23T07:12:28;99812.81;;;9.73;60.57
59272;BME280;45043;51.068;7.026;2024-03-23T07:15:29;99818.00;;;9.81;60.01
59272;BME280;45043;51.068;7.026;2024-03-23T07:18:29;99821.91;;;9.85;60.09
59272;BME280;45043;51.068;7.026;2024-03-23T07:21:30;99813.66;;;9.95;59.60
59272;BME280;45043;51.068;7.026;2024-03-23T07:24:31;99817.66;;;10.06;59.27
59272;BME280;45043;51.068;7.026;2024-03-23T07:27:33;99827.84;;;10.09;59.05
59272;BME280;45043;51.068;7.026;2024-03-23T07:30:34;99825.69;;;9.98;59.12
59272;BME280;45043;51.068;7.026;2024-03-23T07:33:36;99830.59;;;10.01;59.00
59272;BME280;45043;51.068;7.026;2024-03-23T07:36:37;99818.34;;;9.93;59.02
59272;BME280;45043;51.068;7.026;2024-03-23T07:39:41;99835.31;;;10.05;58.67
59272;BME280;45043;51.068;7.026;2024-03-23T07:42:42;99833.28;;;10.22;58.86
59272;BME280;45043;51.068;7.026;2024-03-23T07:45:42;99829.16;;;10.34;58.23
59272;BME280;45043;51.068;7.026;2024-03-23T07:48:44;99826.78;;;10.25;57.72
59272;BME280;45043;51.068;7.026;2024-03-23T07:51:45;99830.22;;;10.40;57.70
59272;BME280;45043;51.068;7.026;2024-03-23T07:54:45;99844.22;;;10.55;57.26
59272;BME280;45043;51.068;7.026;2024-03-23T07:57:47;99825.06;;;10.53;56.86
59272;BME280;45043;51.068;7.026;2024-03-23T08:00:47;99843.00;;;10.36;56.62
59272;BME280;45043;51.068;7.026;2024-03-23T08:03:49;99843.25;;;10.42;56.59
59272;BME280;45043;51.068;7.026;2024-03-23T08:06:50;99849.72;;;10.24;56.36
59272;BME280;45043;51.068;7.026;2024-03-23T08:09:51;99848.91;;;10.24;56.40
59272;BME280;45043;51.068;7.026;2024-03-23T08:12:52;99824.59;;;10.28;56.46
59272;BME280;45043;51.068;7.026;2024-03-23T08:15:56;99836.97;;;10.43;55.99
59272;BME280;45043;51.068;7.026;2024-03-23T08:18:58;99820.00;;;10.52;55.77
59272;BME280;45043;51.068;7.026;2024-03-23T08:21:58;99823.06;;;10.55;55.52
59272;BME280;45043;51.068;7.026;2024-03-23T08:24:59;99821.34;;;10.69;55.03
59272;BME280;45043;51.068;7.026;2024-03-23T08:28:00;99826.41;;;10.64;54.62
59272;BME280;45043;51.068;7.026;2024-03-23T08:31:06;99834.94;;;10.66;53.99
59272;BME280;45043;51.068;7.026;2024-03-23T08:34:07;99826.84;;;10.68;53.57
59272;BME280;45043;51.068;7.026;2024-03-23T08:37:08;99821.63;;;10.53;52.42
59272;BME280;45043;51.068;7.026;2024-03-23T08:40:09;99829.16;;;10.34;52.47
59272;BME280;45043;51.068;7.026;2024-03-23T08:43:12;99840.03;;;10.10;52.05
59272;BME280;45043;51.068;7.026;2024-03-23T08:46:15;99846.72;;;9.91;51.34
59272;BME280;45043;51.068;7.026;2024-03-23T08:49:18;99842.72;;;9.65;51.92
59272;BME280;45043;51.068;7.026;2024-03-23T08:52:21;99856.00;;;9.43;52.31
59272;BME280;45043;51.068;7.026;2024-03-23T08:55:23;99851.72;;;9.12;52.65
59272;BME280;45043;51.068;7.026;2024-03-23T08:58:25;99865.66;;;8.98;52.75
59272;BME280;45043;51.068;7.026;2024-03-23T09:01:26;99846.03;;;8.85;52.64
59272;BME280;45043;51.068;7.026;2024-03-23T09:04:28;99861.09;;;8.91;52.72
59272;BME280;45043;51.068;7.026;2024-03-23T09:07:32;99833.22;;;8.82;52.48
59272;BME280;45043;51.068;7.026;2024-03-23T09:10:40;99883.69;;;8.63;52.76
59272;BME280;45043;51.068;7.026;2024-03-23T09:13:42;99862.03;;;8.53;53.01
59272;BME280;45043;51.068;7.026;2024-03-23T09:16:43;99860.28;;;8.45;53.31
59272;BME280;45043;51.068;7.026;2024-03-23T09:19:43;99870.28;;;8.50;53.34
59272;BME280;45043;51.068;7.026;2024-03-23T09:22:44;99853.19;;;8.46;53.04
59272;BME280;45043;51.068;7.026;2024-03-23T09:25:45;99879.41;;;8.39;53.13
59272;BME280;45043;51.068;7.026;2024-03-23T09:28:49;99860.50;;;8.58;52.97
59272;BME280;45043;51.068;7.026;2024-03-23T09:31:50;99849.41;;;8.71;52.54
59272;BME280;45043;51.068;7.026;2024-03-23T09:34:50;99855.56;;;8.63;52.85
59272;BME280;45043;51.068;7.026;2024-03-23T09:37:51;99840.97;;;8.53;52.76
59272;BME280;45043;51.068;7.026;2024-03-23T09:40:53;99879.47;;;8.54;52.77
59272;BME280;45043;51.068;7.026;2024-03-23T09:43:54;99876.84;;;8.54;53.08
59272;BME280;45043;51.068;7.026;2024-03-23T09:46:55;99847.47;;;8.65;52.80
59272;BME280;45043;51.068;7.026;2024-03-23T09:49:57;99856.50;;;8.94;52.34
59272;BME280;45043;51.068;7.026;2024-03-23T09:52:57;99852.16;;;9.01;51.66
59272;BME280;45043;51.068;7.026;2024-03-23T09:55:58;99863.47;;;8.86;50.67
59272;BME280;45043;51.068;7.026;2024-03-23T09:59:01;99840.03;;;8.91;49.88
59272;BME280;45043;51.068;7.026;2024-03-23T10:02:03;99879.13;;;9.03;48.91
59272;BME280;45043;51.068;7.026;2024-03-23T10:05:05;99824.28;;;9.21;48.39
59272;BME280;45043;51.068;7.026;2024-03-23T10:08:20;99841.91;;;9.35;47.43
59272;BME280;45043;51.068;7.026;2024-03-23T10:11:21;99863.81;;;9.36;46.78
59272;BME280;45043;51.068;7.026;2024-03-23T10:14:29;99852.09;;;9.24;46.72
59272;BME280;45043;51.068;7.026;2024-03-23T10:17:31;99856.19;;;9.26;46.14
59272;BME280;45043;51.068;7.026;2024-03-23T10:20:32;99882.00;;;9.31;45.28
59272;BME280;45043;51.068;7.026;2024-03-23T10:23:33;99844.84;;;9.26;44.56
59272;BME280;45043;51.068;7.026;2024-03-23T10:26:34;99877.53;;;9.31;45.05
59272;BME280;45043;51.068;7.026;2024-03-23T10:29:34;99830.19;;;9.23;45.10
59272;BME280;45043;51.068;7.026;2024-03-23T10:32:35;99828.63;;;9.44;45.52
59272;BME280;45043;51.068;7.026;2024-03-23T10:35:38;99825.84;;;9.45;45.55
59272;BME280;45043;51.068;7.026;2024-03-23T10:38:43;99811.28;;;9.20;45.55
59272;BME280;45043;51.068;7.026;2024-03-23T10:41:45;99809.81;;;9.17;45.81
59272;BME280;45043;51.068;7.026;2024-03-23T10:44:47;99810.81;;;9.16;46.05
59272;BME280;45043;51.068;7.026;2024-03-23T10:47:48;99876.13;;;9.06;45.98
59272;BME280;45043;51.068;7.026;2024-03-23T10:50:48;99851.31;;;8.85;45.69
59272;BME280;45043;51.068;7.026;2024-03-23T10:53:50;99846.50;;;8.66;46.25
59272;BME280;45043;51.068;7.026;2024-03-23T10:57:01;99852.91;;;8.63;46.63
59272;BME280;45043;51.068;7.026;2024-03-23T11:00:04;99843.16;;;8.49;46.59
59272;BME280;45043;51.068;7.026;2024-03-23T11:03:35;99862.84;;;8.30;46.65
59272;BME280;45043;51.068;7.026;2024-03-23T11:06:39;99843.69;;;8.13;46.60
59272;BME280;45043;51.068;7.026;2024-03-23T11:09:41;99839.81;;;8.01;46.91
59272;BME280;45043;51.068;7.026;2024-03-23T11:12:45;99888.03;;;7.93;47.31
59272;BME280;45043;51.068;7.026;2024-03-23T11:15:46;100082.81;;;7.51;49.25
59272;BME280;45043;51.068;7.026;2024-03-23T11:18:47;99960.59;;;6.98;49.90
59272;BME280;45043;51.068;7.026;2024-03-23T11:21:54;99902.75;;;6.65;50.93
59272;BME280;45043;51.068;7.026;2024-03-23T11:24:55;99943.22;;;6.46;51.45
59272;BME280;45043;51.068;7.026;2024-03-23T11:27:58;99891.44;;;6.48;51.64
59272;BME280;45043;51.068;7.026;2024-03-23T11:30:58;99882.75;;;6.56;51.33
59272;BME280;45043;51.068;7.026;2024-03-23T11:34:05;99867.66;;;6.58;51.47
59272;BME280;45043;51.068;7.026;2024-03-23T11:37:06;99842.25;;;6.75;51.25
59272;BME280;45043;51.068;7.026;2024-03-23T11:40:18;99830.63;;;6.94;49.83
59272;BME280;45043;51.068;7.026;2024-03-23T11:43:20;99831.19;;;7.29;48.87
59272;BME280;45043;51.068;7.026;2024-03-23T11:46:22;99862.84;;;7.60;48.28
59272;BME280;45043;51.068;7.026;2024-03-23T11:49:27;99822.59;;;7.90;48.26
59272;BME280;45043;51.068;7.026;2024-03-23T11:52:29;99860.94;;;8.16;47.85
59272;BME280;45043;51.068;7.026;2024-03-23T11:55:30;99859.81;;;8.41;47.54
59272;BME280;45043;51.068;7.026;2024-03-23T11:58:30;99852.19;;;8.47;47.29
59272;BME280;45043;51.068;7.026;2024-03-23T12:01:32;99837.00;;;8.57;47.79
59272;BME280;45043;51.068;7.026;2024-03-23T12:04:33;99835.22;;;8.72;47.68
59272;BME280;45043;51.068;7.026;2024-03-23T12:07:36;99817.63;;;8.73;48.08
59272;BME280;45043;51.068;7.026;2024-03-23T12:10:37;99827.72;;;8.92;47.87
59272;BME280;45043;51.068;7.026;2024-03-23T12:13:38;99817.72;;;9.17;47.57
59272;BME280;45043;51.068;7.026;2024-03-23T12:16:42;99823.91;;;9.39;47.28
59272;BME280;45043;51.068;7.026;2024-03-23T12:19:44;99874.44;;;9.28;47.17
59272;BME280;45043;51.068;7.026;2024-03-23T12:22:46;100037.25;;;8.95;46.68
59272;BME280;45043;51.068;7.026;2024-03-23T12:25:48;99897.03;;;8.84;46.43
59272;BME280;45043;51.068;7.026;2024-03-23T12:28:50;99925.75;;;8.79;46.91
59272;BME280;45043;51.068;7.026;2024-03-23T12:31:51;99850.56;;;8.91;47.38
59272;BME280;45043;51.068;7.026;2024-03-23T12:34:51;99944.50;;;8.76;47.37
59272;BME280;45043;51.068;7.026;2024-03-23T12:37:53;99866.56;;;8.36;47.57
59272;BME280;45043;51.068;7.026;2024-03-23T12:40:54;99887.94;;;8.10;48.20
59272;BME280;45043;51.068;7.026;2024-03-23T12:43:55;99884.78;;;7.75;49.53
59272;BME280;45043;51.068;7.026;2024-03-23T12:46:56;99898.69;;;7.28;50.10
59272;BME280;45043;51.068;7.026;2024-03-23T12:49:56;99936.44;;;6.86;51.89
59272;BME280;45043;51.068;7.026;2024-03-23T12:52:57;99905.22;;;6.59;52.73
59272;BME280;45043;51.068;7.026;2024-03-23T12:55:59;99875.38;;;6.60;53.01
59272;BME280;45043;51.068;7.026;2024-03-23T12:58:59;99866.03;;;6.73;52.80
59272;BME280;45043;51.068;7.026;2024-03-23T13:02:00;99849.47;;;6.97;52.08
59272;BME280;45043;51.068;7.026;2024-03-23T13:05:01;99839.03;;;7.53;51.96
59272;BME280;45043;51.068;7.026;2024-03-23T13:08:03;99843.28;;;8.33;51.31
59272;BME280;45043;51.068;7.026;2024-03-23T13:11:03;99838.31;;;8.99;51.12
59272;BME280;45043;51.068;7.026;2024-03-23T13:14:04;99833.63;;;9.09;50.58
59272;BME280;45043;51.068;7.026;2024-03-23T13:17:06;99847.19;;;8.83;50.12
59272;BME280;45043;51.068;7.026;2024-03-23T13:20:08;99826.25;;;9.04;49.55
59272;BME280;45043;51.068;7.026;2024-03-23T13:23:13;99837.56;;;9.43;48.58
59272;BME280;45043;51.068;7.026;2024-03-23T13:26:14;99826.16;;;9.86;47.67
59272;BME280;45043;51.068;7.026;2024-03-23T13:29:15;99808.56;;;10.08;47.17
59272;BME280;45043;51.068;7.026;2024-03-23T13:32:15;99811.38;;;10.43;46.33
59272;BME280;45043;51.068;7.026;2024-03-23T13:35:16;99819.44;;;10.84;45.96
59272;BME280;45043;51.068;7.026;2024-03-23T13:38:17;99827.00;;;10.88;44.91
59272;BME280;45043;51.068;7.026;2024-03-23T13:41:18;99811.44;;;10.71;44.90
59272;BME280;45043;51.068;7.026;2024-03-23T13:44:19;99839.59;;;10.64;44.73
59272;BME280;45043;51.068;7.026;2024-03-23T13:47:20;99798.22;;;10.50;44.76
59272;BME280;45043;51.068;7.026;2024-03-23T13:50:21;99793.03;;;10.20;45.00
59272;BME280;45043;51.068;7.026;2024-03-23T13:53:22;99784.44;;;9.75;45.32
59272;BME280;45043;51.068;7.026;2024-03-23T13:56:24;99787.66;;;9.41;45.76
59272;BME280;45043;51.068;7.026;2024-03-23T13:59:25;99781.63;;;9.03;46.38
59272;BME280;45043;51.068;7.026;2024-03-23T14:02:25;99786.34;;;8.78;46.77
59272;BME280;45043;51.068;7.026;2024-03-23T14:05:26;99812.66;;;8.55;47.22
59272;BME280;45043;51.068;7.026;2024-03-23T14:08:26;99784.09;;;8.43;47.76
59272;BME280;45043;51.068;7.026;2024-03-23T14:11:28;99799.38;;;8.71;47.43
59272;BME280;45043;51.068;7.026;2024-03-23T14:14:29;99793.34;;;8.85;47.44
59272;BME280;45043;51.068;7.026;2024-03-23T14:17:29;99800.16;;;8.95;47.45
59272;BME280;45043;51.068;7.026;2024-03-23T14:20:31;99794.16;;;8.86;47.57
59272;BME280;45043;51.068;7.026;2024-03-23T14:23:31;99795.84;;;9.31;47.30
59272;BME280;45043;51.068;7.026;2024-03-23T14:26:38;99781.34;;;10.08;46.25
59272;BME280;45043;51.068;7.026;2024-03-23T14:29:39;99787.03;;;10.97;44.82
59272;BME280;45043;51.068;7.026;2024-03-23T14:32:40;99783.66;;;11.10;44.03
59272;BME280;45043;51.068;7.026;2024-03-23T14:35:41;99761.25;;;11.06;43.85
59272;BME280;45043;51.068;7.026;2024-03-23T14:38:41;99761.38;;;10.63;43.97
59272;BME280;45043;51.068;7.026;2024-03-23T14:41:43;99774.53;;;9.99;44.60
59272;BME280;45043;51.068;7.026;2024-03-23T14:44:45;99802.09;;;9.75;44.79
59272;BME280;45043;51.068;7.026;2024-03-23T14:47:46;99821.13;;;9.40;43.92
59272;BME280;45043;51.068;7.026;2024-03-23T14:50:56;99794.19;;;9.15;44.23
59272;BME280;45043;51.068;7.026;2024-03-23T14:53:56;99820.34;;;9.02;45.10
59272;BME280;45043;51.068;7.026;2024-03-23T14:56:58;99810.88;;;8.78;46.32
59272;BME280;45043;51.068;7.026;2024-03-23T14:59:59;99805.41;;;8.57;47.24
59272;BME280;45043;51.068;7.026;2024-03-23T15:03:00;99796.56;;;8.50;47.72
59272;BME280;45043;51.068;7.026;2024-03-23T15:06:01;99792.66;;;8.46;48.03
59272;BME280;45043;51.068;7.026;2024-03-23T15:09:02;99798.28;;;8.42;48.16
59272;BME280;45043;51.068;7.026;2024-03-23T15:12:07;99782.84;;;8.39;48.02
59272;BME280;45043;51.068;7.026;2024-03-23T15:15:09;99787.81;;;8.34;47.97
59272;BME280;45043;51.068;7.026;2024-03-23T15:18:12;99769.75;;;8.31;47.88
59272;BME280;45043;51.068;7.026;2024-03-23T15:21:14;99769.56;;;8.56;47.90
59272;BME280;45043;51.068;7.026;2024-03-23T15:24:20;99770.13;;;9.04;47.29
59272;BME280;45043;51.068;7.026;2024-03-23T15:27:21;99754.13;;;11.06;44.78
59272;BME280;45043;51.068;7.026;2024-03-23T15:30:23;99742.53;;;15.06;38.23
59272;BME280;45043;51.068;7.026;2024-03-23T15:33:24;99726.81;;;15.60;36.71
59272;BME280;45043;51.068;7.026;2024-03-23T15:36:25;99720.44;;;14.12;38.66
59272;BME280;45043;51.068;7.026;2024-03-23T15:39:26;99727.19;;;15.08;37.12
59272;BME280;45043;51.068;7.026;2024-03-23T15:42:26;99729.91;;;16.71;34.52
59272;BME280;45043;51.068;7.026;2024-03-23T15:45:27;99722.09;;;20.92;28.65
59272;BME280;45043;51.068;7.026;2024-03-23T15:48:28;99711.91;;;24.09;25.11
59272;BME280;45043;51.068;7.026;2024-03-23T15:51:30;99715.88;;;26.09;22.74
59272;BME280;45043;51.068;7.026;2024-03-23T15:54:35;99722.34;;;25.75;21.58
59272;BME280;45043;51.068;7.026;2024-03-23T15:57:37;99715.19;;;23.02;23.07
59272;BME280;45043;51.068;7.026;2024-03-23T16:00:38;99756.66;;;19.21;27.28
59272;BME280;45043;51.068;7.026;2024-03-23T16:03:39;99731.19;;;15.84;30.91
59272;BME280;45043;51.068;7.026;2024-03-23T16:06:39;99733.38;;;13.70;33.48
59272;BME280;45043;51.068;7.026;2024-03-23T16:09:42;99740.16;;;12.35;35.82
59272;BME280;45043;51.068;7.026;2024-03-23T16:12:43;99731.06;;;11.28;37.84
59272;BME280;45043;51.068;7.026;2024-03-23T16:15:57;99739.94;;;10.51;39.42
59272;BME280;45043;51.068;7.026;2024-03-23T16:18:58;99718.25;;;9.92;40.30
59272;BME280;45043;51.068;7.026;2024-03-23T16:22:00;99718.53;;;9.60;40.58
59272;BME280;45043;51.068;7.026;2024-03-23T16:25:01;99710.81;;;9.59;40.64
59272;BME280;45043;51.068;7.026;2024-03-23T16:28:04;99704.28;;;12.19;37.06
59272;BME280;45043;51.068;7.026;2024-03-23T16:31:06;99674.91;;;15.81;31.60
59272;BME280;45043;51.068;7.026;2024-03-23T16:34:08;99686.97;;;16.72;30.07
59272;BME280;45043;51.068;7.026;2024-03-23T16:37:09;99688.91;;;16.88;29.86
59272;BME280;45043;51.068;7.026;2024-03-23T16:40:11;99676.78;;;17.62;29.16
59272;BME280;45043;51.068;7.026;2024-03-23T16:43:12;99711.91;;;16.54;30.49
59272;BME280;45043;51.068;7.026;2024-03-23T16:46:14;99682.25;;;17.38;29.55
59272;BME280;45043;51.068;7.026;2024-03-23T16:49:16;99685.22;;;16.78;30.12
59272;BME280;45043;51.068;7.026;2024-03-23T16:52:17;99687.00;;;17.36;29.81
59272;BME280;45043;51.068;7.026;2024-03-23T16:55:17;99689.78;;;17.41;29.42
59272;BME280;45043;51.068;7.026;2024-03-23T16:58:18;99705.13;;;17.10;29.56
59272;BME280;45043;51.068;7.026;2024-03-23T17:01:22;99698.56;;;16.78;29.82